createdAt,value
2024-03-06T00:01:58.973Z,68.15
2024-03-06T00:04:26.429Z,63.92
2024-03-06T00:06:55.149Z,69.53
2024-03-06T00:09:24.705Z,69.03
2024-03-06T00:11:53.924Z,63.88
2024-03-06T00:14:23.212Z,72.10
2024-03-06T00:16:53.682Z,62.67
2024-03-06T00:19:22.915Z,68.53
2024-03-06T00:21:51.168Z,68.53
2024-03-06T00:24:18.408Z,65.20
2024-03-06T00:26:46.455Z,62.40
2024-03-06T00:29:14.000Z,56.53
2024-03-06T00:31:45.343Z,61.70
2024-03-06T00:34:17.251Z,60.58
2024-03-06T00:36:45.027Z,56.42
2024-03-06T00:39:17.332Z,65.47
2024-03-06T00:41:44.358Z,57.85
2024-03-06T00:44:11.908Z,59.05
2024-03-06T00:46:41.063Z,61.22
2024-03-06T00:49:08.135Z,56.05
2024-03-06T00:51:44.903Z,72.05
2024-03-06T00:54:16.285Z,57.40
2024-03-06T00:56:44.749Z,58.90
2024-03-06T00:59:12.568Z,61.90
2024-03-06T01:01:39.721Z,66.40
2024-03-06T01:04:07.465Z,68.65
2024-03-06T01:06:34.750Z,62.38
2024-03-06T01:09:02.680Z,59.25
2024-03-06T01:11:29.669Z,59.85
2024-03-06T01:13:57.046Z,70.10
2024-03-06T01:16:24.226Z,74.20
2024-03-06T01:18:51.249Z,65.60
2024-03-06T01:21:18.448Z,76.85
2024-03-06T01:23:45.602Z,68.57
2024-03-06T01:26:15.315Z,68.90
2024-03-06T01:28:43.684Z,77.80
2024-03-06T01:31:11.828Z,71.15
2024-03-06T01:33:39.532Z,78.78
2024-03-06T01:36:08.031Z,72.03
2024-03-06T01:38:35.605Z,74.47
2024-03-06T01:41:02.906Z,70.55
2024-03-06T01:43:29.925Z,75.53
2024-03-06T01:45:56.954Z,80.15
2024-03-06T01:48:30.581Z,78.78
2024-03-06T01:51:00.719Z,72.20
2024-03-06T01:53:31.857Z,85.95
2024-03-06T01:55:59.467Z,83.88
2024-03-06T01:58:26.445Z,77.78
2024-03-06T02:03:22.490Z,84.18
2024-03-06T02:05:54.197Z,96.30
2024-03-06T02:08:21.380Z,94.13
2024-03-06T02:10:48.768Z,89.22
2024-03-06T02:13:16.559Z,95.95
2024-03-06T02:15:45.564Z,107.80
2024-03-06T02:18:12.702Z,102.70
2024-03-06T02:20:41.891Z,96.18
2024-03-06T02:23:09.548Z,103.60
2024-03-06T02:25:37.071Z,95.15
2024-03-06T02:28:04.402Z,100.70
2024-03-06T02:30:37.477Z,115.57
2024-03-06T02:33:05.438Z,100.68
2024-03-06T02:35:32.506Z,100.35
2024-03-06T02:38:01.265Z,102.03
2024-03-06T02:40:28.333Z,95.95
2024-03-06T02:42:58.346Z,105.50
2024-03-06T02:45:27.854Z,100.72
2024-03-06T02:47:55.922Z,92.32
2024-03-06T02:50:24.545Z,106.85
2024-03-06T02:52:53.141Z,110.88
2024-03-06T02:55:20.780Z,103.93
2024-03-06T03:00:30.843Z,104.97
2024-03-06T03:02:58.064Z,110.82
2024-03-06T03:05:25.372Z,97.63
2024-03-06T03:07:54.874Z,103.10
2024-03-06T03:10:22.023Z,98.95
2024-03-06T03:12:49.125Z,101.15
2024-03-06T03:15:16.349Z,92.57
2024-03-06T03:17:43.610Z,95.85
2024-03-06T03:20:11.661Z,96.85
2024-03-06T03:22:40.820Z,101.72
2024-03-06T03:25:14.624Z,103.45
2024-03-06T03:27:42.326Z,99.55
2024-03-06T03:30:10.241Z,96.10
2024-03-06T03:32:38.170Z,99.18
2024-03-06T03:35:06.833Z,114.03
2024-03-06T03:37:34.788Z,106.75
2024-03-06T03:40:01.999Z,100.55
2024-03-06T03:42:29.183Z,106.50
2024-03-06T03:44:56.308Z,94.93
2024-03-06T03:47:23.523Z,104.40
2024-03-06T03:50:02.678Z,111.30
2024-03-06T03:52:37.147Z,107.88
2024-03-06T03:55:04.912Z,114.28
2024-03-06T03:57:32.211Z,104.38
2024-03-06T03:59:59.533Z,110.05
2024-03-06T04:02:26.582Z,104.80
2024-03-06T04:04:54.927Z,102.18
2024-03-06T04:07:22.093Z,103.18
2024-03-06T04:09:49.223Z,108.20
2024-03-06T04:12:17.126Z,108.82
2024-03-06T04:14:44.920Z,119.00
2024-03-06T04:17:11.963Z,107.53
2024-03-06T04:19:38.897Z,115.63
2024-03-06T04:22:06.995Z,120.93
2024-03-06T04:24:34.034Z,130.13
2024-03-06T04:27:00.974Z,131.80
2024-03-06T04:29:27.867Z,133.82
2024-03-06T04:31:55.044Z,120.47
2024-03-06T04:34:21.968Z,118.68
2024-03-06T04:36:48.928Z,127.78
2024-03-06T04:39:15.922Z,119.50
2024-03-06T04:41:42.786Z,126.53
2024-03-06T04:44:09.850Z,135.95
2024-03-06T04:46:36.806Z,119.78
2024-03-06T04:49:04.518Z,128.48
2024-03-06T04:51:31.507Z,137.60
2024-03-06T04:53:58.411Z,140.93
2024-03-06T04:56:25.748Z,144.65
2024-03-06T04:58:53.870Z,128.95
2024-03-06T05:01:20.872Z,141.45
2024-03-06T05:58:56.199Z,169.52
2024-03-06T06:01:23.356Z,182.93
2024-03-06T06:03:50.780Z,173.48
2024-03-06T06:06:18.749Z,179.68
2024-03-06T06:08:46.204Z,199.32
2024-03-06T06:11:14.009Z,228.00
2024-03-06T06:13:41.212Z,227.68
2024-03-06T06:16:08.310Z,236.70
2024-03-06T06:18:35.290Z,297.30
2024-03-06T06:21:08.643Z,230.90
2024-03-06T06:23:36.380Z,206.13
2024-03-06T06:26:03.364Z,249.68
2024-03-06T06:28:33.327Z,213.68
2024-03-06T06:31:00.358Z,199.45
2024-03-06T06:33:27.453Z,252.52
2024-03-06T06:35:55.328Z,249.38
2024-03-06T06:38:23.012Z,269.65
2024-03-06T06:40:53.928Z,251.73
2024-03-06T06:43:20.821Z,237.40
2024-03-06T06:45:54.434Z,276.00
2024-03-06T06:48:22.408Z,287.33
2024-03-06T06:50:49.442Z,231.95
2024-03-06T06:53:16.905Z,254.70
2024-03-06T06:55:43.865Z,325.40
2024-03-06T06:58:11.890Z,266.15
2024-03-06T07:00:38.986Z,289.35
2024-03-06T07:03:06.253Z,236.45
2024-03-06T07:05:33.367Z,462.48
2024-03-06T07:08:00.898Z,258.90
2024-03-06T07:10:28.900Z,306.55
2024-03-06T07:12:55.953Z,354.25
2024-03-06T07:15:23.099Z,345.33
2024-03-06T07:17:50.286Z,348.20
2024-03-06T07:20:18.364Z,417.10
2024-03-06T07:22:52.321Z,351.88
2024-03-06T07:25:19.252Z,377.48
2024-03-06T07:27:46.125Z,408.00
2024-03-06T07:30:14.964Z,262.20
2024-03-06T07:32:42.166Z,250.85
2024-03-06T07:35:09.330Z,203.25
2024-03-06T07:37:37.266Z,276.63
2024-03-06T07:40:06.148Z,185.80
2024-03-06T07:42:34.708Z,253.73
2024-03-06T07:45:02.295Z,192.75
2024-03-06T07:47:29.356Z,170.85
2024-03-06T07:49:56.941Z,134.73
2024-03-06T07:52:23.942Z,127.72
2024-03-06T07:54:52.072Z,142.35
2024-03-06T07:57:19.221Z,133.55
2024-03-06T07:59:46.298Z,136.48
2024-03-06T08:02:13.486Z,135.05
2024-03-06T08:12:49.218Z,125.40
2024-03-06T08:15:16.601Z,121.80
2024-03-06T08:17:44.893Z,121.47
2024-03-06T08:20:12.832Z,100.75
2024-03-06T08:22:41.208Z,95.65
2024-03-06T08:25:09.981Z,89.63
2024-03-06T08:27:38.345Z,89.25
2024-03-06T08:30:06.435Z,76.30
2024-03-06T08:32:37.206Z,73.45
2024-03-06T08:35:14.162Z,70.50
2024-03-06T08:37:43.967Z,82.80
2024-03-06T08:40:16.259Z,67.32
2024-03-06T08:42:43.784Z,65.90
2024-03-06T08:45:11.949Z,63.13
2024-03-06T08:47:39.636Z,69.35
2024-03-06T08:50:09.034Z,69.78
2024-03-06T08:52:36.707Z,65.63
2024-03-06T08:55:07.927Z,57.10
2024-03-06T08:57:36.317Z,56.15
2024-03-06T09:00:04.642Z,59.05
2024-03-06T09:02:31.833Z,51.33
2024-03-06T09:04:59.059Z,51.88
2024-03-06T09:07:27.835Z,49.85
2024-03-06T09:09:54.718Z,49.67
2024-03-06T09:12:21.986Z,48.97
2024-03-06T09:14:49.097Z,51.70
2024-03-06T09:17:16.364Z,53.80
2024-03-06T09:19:55.233Z,53.38
2024-03-06T09:22:30.454Z,57.95
2024-03-06T09:24:57.773Z,56.55
2024-03-06T09:27:26.105Z,53.88
2024-03-06T09:29:53.147Z,49.60
2024-03-06T09:59:40.927Z,42.17
2024-03-06T10:02:20.218Z,41.55
2024-03-06T10:10:18.674Z,33.85
2024-03-06T10:15:22.861Z,30.15
2024-03-06T10:17:52.710Z,30.58
2024-03-06T10:20:21.784Z,30.67
2024-03-06T10:22:57.420Z,25.55
2024-03-06T10:25:28.004Z,25.17
2024-03-06T10:36:12.776Z,34.80
2024-03-06T10:38:42.853Z,23.50
2024-03-06T10:41:21.009Z,25.58
2024-03-06T10:46:31.000Z,24.42
2024-03-06T11:15:22.091Z,13.10
2024-03-06T11:17:50.514Z,15.45
2024-03-06T11:44:57.125Z,10.38
2024-03-06T11:47:26.715Z,8.65
2024-03-06T11:49:55.536Z,10.02
2024-03-06T11:52:22.503Z,9.98
2024-03-06T11:54:49.715Z,9.43
2024-03-06T12:21:56.047Z,10.20
2024-03-06T12:24:23.074Z,11.23
2024-03-06T12:27:04.583Z,10.10
2024-03-06T12:29:33.565Z,10.35
2024-03-06T12:32:01.762Z,11.02
2024-03-06T12:34:29.431Z,9.68
2024-03-06T12:37:30.052Z,8.50
2024-03-06T12:39:56.973Z,8.68
2024-03-06T12:42:29.299Z,8.77
2024-03-06T12:44:56.629Z,8.30
2024-03-06T12:47:23.856Z,8.95
2024-03-06T12:49:52.233Z,8.02
2024-03-06T12:52:19.713Z,8.95
2024-03-06T12:54:46.899Z,8.95
2024-03-06T12:57:14.477Z,8.45
2024-03-06T12:59:42.827Z,7.20
2024-03-06T13:02:11.274Z,7.63
2024-03-06T13:04:38.579Z,6.45
2024-03-06T13:07:05.970Z,9.32
2024-03-06T13:09:33.894Z,8.23
2024-03-06T13:12:01.686Z,8.48
2024-03-06T13:14:29.695Z,7.68
2024-03-06T13:16:57.309Z,6.75
2024-03-06T13:19:24.950Z,5.60
2024-03-06T13:21:52.052Z,7.72
2024-03-06T13:24:19.104Z,8.45
2024-03-06T13:26:49.056Z,5.30
2024-03-06T13:29:16.249Z,7.00
2024-03-06T13:31:43.395Z,13.05
2024-03-06T13:34:10.346Z,7.07
2024-03-06T13:36:37.577Z,9.98
2024-03-06T13:39:07.468Z,7.47
2024-03-06T13:41:34.572Z,9.10
2024-03-06T13:44:01.750Z,7.13
2024-03-06T13:49:42.266Z,4.90
2024-03-06T13:52:11.661Z,6.05
2024-03-06T13:54:43.411Z,6.75
2024-03-06T13:57:10.942Z,5.90
2024-03-06T13:59:39.598Z,6.80
2024-03-06T14:02:07.856Z,6.70
2024-03-06T14:04:35.406Z,7.47
2024-03-06T14:07:04.318Z,7.35
2024-03-06T14:09:31.799Z,8.15
2024-03-06T14:11:59.049Z,8.80
2024-03-06T14:14:27.515Z,7.88
2024-03-06T14:16:56.983Z,13.48
2024-03-06T14:19:26.887Z,9.65
2024-03-06T14:21:53.890Z,7.25
2024-03-06T14:24:22.003Z,11.23
2024-03-06T14:26:50.226Z,11.77
2024-03-06T14:29:17.412Z,7.18
2024-03-06T14:31:44.528Z,8.02
2024-03-06T14:34:11.857Z,7.10
2024-03-06T14:36:40.115Z,8.00
2024-03-06T14:39:08.245Z,5.93
2024-03-06T14:41:35.177Z,8.48
2024-03-06T14:44:02.610Z,8.70
2024-03-06T14:46:30.593Z,8.00
2024-03-06T14:48:57.748Z,11.60
2024-03-06T14:51:24.719Z,9.95
2024-03-06T14:53:52.088Z,8.23
2024-03-06T14:56:19.626Z,8.13
2024-03-06T14:58:46.650Z,9.52
2024-03-06T15:01:14.332Z,7.72
2024-03-06T15:03:41.731Z,12.00
2024-03-06T15:06:09.124Z,8.70
2024-03-06T15:08:36.131Z,12.40
2024-03-06T15:11:04.431Z,12.57
2024-03-06T15:13:31.473Z,8.73
2024-03-06T15:15:58.824Z,14.32
2024-03-06T15:18:26.422Z,12.80
2024-03-06T15:20:54.099Z,9.02
2024-03-06T15:23:21.903Z,14.63
2024-03-06T15:25:49.706Z,10.05
2024-03-06T15:28:16.884Z,9.65
2024-03-06T15:30:45.524Z,14.38
2024-03-06T15:33:12.632Z,12.43
2024-03-06T15:35:39.884Z,10.88
2024-03-06T15:38:07.503Z,13.25
2024-03-06T15:40:34.457Z,13.93
2024-03-06T15:43:04.250Z,12.85
2024-03-06T15:45:31.766Z,13.30
2024-03-06T15:47:58.699Z,9.57
2024-03-06T15:50:25.611Z,12.98
2024-03-06T15:52:52.566Z,17.88
2024-03-06T15:55:19.630Z,14.20
2024-03-06T15:57:47.658Z,35.53
2024-03-06T16:00:17.415Z,31.02
2024-03-06T16:02:45.742Z,15.45
2024-03-06T16:05:12.949Z,18.50
2024-03-06T16:07:47.259Z,20.65
2024-03-06T16:10:18.868Z,19.05
2024-03-06T16:12:45.955Z,17.02
2024-03-06T16:15:12.974Z,15.15
2024-03-06T16:17:40.285Z,14.50
2024-03-06T16:22:45.176Z,14.55
2024-03-06T16:25:12.405Z,14.20
2024-03-06T16:27:39.544Z,13.13
2024-03-06T16:30:09.880Z,18.23
2024-03-06T16:32:37.172Z,16.58
2024-03-06T16:35:05.398Z,15.57
2024-03-06T16:37:32.672Z,17.38
2024-03-06T16:39:59.899Z,21.10
2024-03-06T16:42:26.837Z,26.45
2024-03-06T16:44:53.712Z,23.33
2024-03-06T16:47:20.738Z,24.10
2024-03-06T16:49:47.701Z,24.52
2024-03-06T16:52:14.732Z,25.27
2024-03-06T16:54:43.260Z,26.50
2024-03-06T16:57:12.495Z,28.85
2024-03-06T16:59:39.707Z,30.00
2024-03-06T17:02:06.953Z,40.15
2024-03-06T17:04:33.952Z,36.70
2024-03-06T17:07:03.310Z,36.15
2024-03-06T17:09:30.215Z,35.90
2024-03-06T17:11:57.347Z,36.92
2024-03-06T17:14:24.417Z,39.13
2024-03-06T17:16:51.516Z,42.10
2024-03-06T17:19:18.427Z,45.05
2024-03-06T17:21:45.451Z,41.45
2024-03-06T17:24:13.689Z,38.80
2024-03-06T17:26:41.597Z,35.67
2024-03-06T17:29:08.855Z,43.80
2024-03-06T17:31:39.253Z,38.70
2024-03-06T17:34:07.486Z,41.05
2024-03-06T17:36:37.345Z,38.33
2024-03-06T17:39:07.438Z,46.97
2024-03-06T17:41:34.389Z,39.97
2024-03-06T17:44:03.056Z,38.95
2024-03-06T17:46:34.288Z,42.65
2024-03-06T17:49:07.434Z,38.15
2024-03-06T17:51:42.567Z,35.45
2024-03-06T17:54:16.991Z,41.25
2024-03-06T17:56:47.409Z,45.05
2024-03-06T17:59:14.502Z,49.33
2024-03-06T18:01:43.271Z,47.40
2024-03-06T18:04:12.548Z,40.88
2024-03-06T18:06:41.696Z,42.70
2024-03-06T18:09:16.473Z,43.67
2024-03-06T18:11:45.520Z,40.80
2024-03-06T18:14:18.961Z,47.55
2024-03-06T18:16:47.787Z,40.97
2024-03-06T18:19:15.479Z,48.20
2024-03-06T18:21:47.991Z,56.08
2024-03-06T18:24:15.983Z,43.75
2024-03-06T18:26:43.751Z,42.00
2024-03-06T18:29:12.530Z,41.65
2024-03-06T18:31:39.694Z,46.90
2024-03-06T18:34:08.475Z,42.05
2024-03-06T18:36:36.164Z,40.45
2024-03-06T18:39:03.419Z,44.47
2024-03-06T18:41:42.293Z,43.55
2024-03-06T18:44:12.243Z,48.95
2024-03-06T18:46:41.089Z,44.17
2024-03-06T18:49:09.105Z,43.17
2024-03-06T18:51:40.598Z,50.58
2024-03-06T18:54:08.729Z,52.60
2024-03-06T18:56:38.518Z,49.17
2024-03-06T18:59:08.331Z,51.97
2024-03-06T19:01:41.526Z,48.72
2024-03-06T19:04:18.090Z,45.20
2024-03-06T19:06:47.927Z,54.63
2024-03-06T19:09:18.083Z,53.88
2024-03-06T19:11:48.153Z,50.70
2024-03-06T19:14:15.792Z,51.90
2024-03-06T19:16:44.452Z,51.50
2024-03-06T19:21:55.663Z,52.08
2024-03-06T19:24:23.111Z,51.17
2024-03-06T19:26:52.094Z,53.58
2024-03-06T19:29:19.956Z,52.30
2024-03-06T19:31:51.345Z,56.22
2024-03-06T19:34:27.031Z,50.05
2024-03-06T19:36:56.569Z,53.85
2024-03-06T19:39:27.394Z,60.50
2024-03-06T19:41:58.743Z,54.70
2024-03-06T19:44:28.198Z,59.60
2024-03-06T19:46:57.185Z,53.63
2024-03-06T19:49:28.114Z,56.67
2024-03-06T19:51:56.916Z,56.33
2024-03-06T19:54:23.987Z,57.70
2024-03-06T19:56:53.326Z,57.75
2024-03-06T19:59:21.313Z,63.33
2024-03-06T20:01:48.275Z,62.80
2024-03-06T20:04:15.386Z,56.03
2024-03-06T20:06:42.412Z,58.55
2024-03-06T20:09:10.126Z,61.97
2024-03-06T20:11:37.311Z,61.65
2024-03-06T20:14:04.720Z,59.60
2024-03-06T20:16:34.445Z,66.90
2024-03-06T20:19:01.709Z,58.95
2024-03-06T20:21:28.668Z,59.45
2024-03-06T20:23:56.118Z,58.55
2024-03-06T20:26:23.506Z,62.10
2024-03-06T20:29:03.859Z,60.33
2024-03-06T20:31:32.379Z,61.40
2024-03-06T20:33:59.480Z,58.22
2024-03-06T20:36:27.150Z,63.38
2024-03-06T20:38:55.636Z,60.17
2024-03-06T20:41:23.231Z,57.97
2024-03-06T20:43:52.162Z,58.10
2024-03-06T20:46:19.511Z,61.63
2024-03-06T20:48:48.357Z,62.42
2024-03-06T20:51:15.607Z,72.40
2024-03-06T20:53:43.350Z,64.20
2024-03-06T20:56:10.530Z,64.55
2024-03-06T20:58:37.548Z,69.00
2024-03-06T21:01:05.716Z,82.88
2024-03-06T21:03:34.617Z,76.47
2024-03-06T21:06:01.981Z,79.10
2024-03-06T21:08:30.058Z,68.63
2024-03-06T21:10:59.188Z,68.65
2024-03-06T21:13:27.301Z,79.72
2024-03-06T21:15:54.402Z,69.75
2024-03-06T21:18:22.157Z,67.00
2024-03-06T21:20:51.539Z,69.82
2024-03-06T21:23:18.956Z,66.35
2024-03-06T21:25:46.047Z,61.85
2024-03-06T21:28:15.682Z,60.22
2024-03-06T21:30:43.240Z,73.00
2024-03-06T21:33:15.144Z,68.00
2024-03-06T21:35:42.328Z,67.88
2024-03-06T21:38:09.567Z,56.47
2024-03-06T21:40:38.061Z,71.43
2024-03-06T21:43:05.154Z,65.65
2024-03-06T21:45:35.126Z,66.25
2024-03-06T21:48:02.452Z,61.47
2024-03-06T21:50:29.693Z,67.18
2024-03-06T21:52:58.907Z,64.22
2024-03-06T21:55:27.097Z,63.03
2024-03-06T21:57:54.061Z,71.20
2024-03-06T22:00:24.208Z,61.67
2024-03-06T22:02:51.483Z,59.90
2024-03-06T22:05:18.816Z,61.72
2024-03-06T22:07:46.771Z,62.78
2024-03-06T22:10:15.112Z,64.05
2024-03-06T22:12:42.763Z,61.72
2024-03-06T22:15:10.411Z,74.95
2024-03-06T22:17:38.336Z,72.28
2024-03-06T22:20:07.570Z,66.30
2024-03-06T22:22:34.628Z,65.70
2024-03-06T22:25:02.132Z,68.07
2024-03-06T22:27:29.197Z,63.95
2024-03-06T22:29:56.347Z,67.10
2024-03-06T22:32:23.536Z,60.83
2024-03-06T22:34:50.558Z,65.07
2024-03-06T22:37:20.803Z,69.10
2024-03-06T22:39:47.836Z,59.22
2024-03-06T22:42:14.952Z,64.88
2024-03-06T22:44:42.153Z,69.13
2024-03-06T22:47:09.708Z,62.38
2024-03-06T22:49:37.144Z,62.85
2024-03-06T22:52:05.437Z,62.92
2024-03-06T22:54:33.134Z,67.78
2024-03-06T22:57:03.508Z,66.28
2024-03-06T22:59:34.028Z,63.13
2024-03-06T23:02:01.594Z,62.58
2024-03-06T23:04:28.481Z,65.28
2024-03-06T23:06:56.688Z,63.30
2024-03-06T23:09:23.985Z,62.85
2024-03-06T23:11:51.281Z,64.43
2024-03-06T23:14:19.007Z,66.40
2024-03-06T23:16:46.455Z,63.05
2024-03-06T23:19:14.598Z,60.20
2024-03-06T23:21:41.758Z,66.22
2024-03-06T23:24:08.748Z,62.72
2024-03-06T23:26:35.897Z,63.85
2024-03-06T23:29:05.114Z,73.50
2024-03-06T23:31:32.395Z,67.90
2024-03-06T23:34:00.539Z,62.10
2024-03-06T23:36:27.595Z,68.75
2024-03-06T23:38:54.735Z,64.35
2024-03-06T23:41:22.131Z,71.00
2024-03-06T23:43:49.152Z,63.83
2024-03-06T23:46:16.286Z,69.05
2024-03-06T23:48:43.346Z,68.63
2024-03-06T23:51:10.432Z,75.40
2024-03-06T23:53:37.484Z,69.78
2024-03-06T23:56:04.915Z,72.55
2024-03-06T23:58:32.040Z,65.60
